sensor_id;sensor_type;location;lat;lon;timestamp;temperature;humidity
26964;DHT22;14521;48.148;-1.656;2022-07-04T00:03:21;22.70;76.90
26964;DHT22;14521;48.148;-1.656;2022-07-04T00:06:43;22.60;76.20
26964;DHT22;14521;48.148;-1.656;2022-07-04T00:10:06;22.50;76.60
26964;DHT22;14521;48.148;-1.656;2022-07-04T00:13:29;22.60;76.80
26964;DHT22;14521;48.148;-1.656;2022-07-04T00:16:52;22.50;76.90
26964;DHT22;14521;48.148;-1.656;2022-07-04T00:20:15;22.50;77.00
26964;DHT22;14521;48.148;-1.656;2022-07-04T00:23:37;22.50;77.10
26964;DHT22;14521;48.148;-1.656;2022-07-04T00:26:59;22.50;77.20
26964;DHT22;14521;48.148;-1.656;2022-07-04T00:30:22;22.40;77.30
26964;DHT22;14521;48.148;-1.656;2022-07-04T00:33:44;22.50;77.10
26964;DHT22;14521;48.148;-1.656;2022-07-04T00:37:07;22.50;77.00
26964;DHT22;14521;48.148;-1.656;2022-07-04T00:40:31;22.50;77.10
26964;DHT22;14521;48.148;-1.656;2022-07-04T00:47:35;22.40;77.10
26964;DHT22;14521;48.148;-1.656;2022-07-04T00:50:58;22.30;77.10
26964;DHT22;14521;48.148;-1.656;2022-07-04T00:54:20;22.40;77.30
26964;DHT22;14521;48.148;-1.656;2022-07-04T00:57:46;22.40;77.20
26964;DHT22;14521;48.148;-1.656;2022-07-04T01:01:08;22.40;77.10
26964;DHT22;14521;48.148;-1.656;2022-07-04T01:04:31;22.40;77.40
26964;DHT22;14521;48.148;-1.656;2022-07-04T01:07:54;22.50;78.00
26964;DHT22;14521;48.148;-1.656;2022-07-04T01:11:16;22.50;77.20
26964;DHT22;14521;48.148;-1.656;2022-07-04T01:14:39;22.50;77.50
26964;DHT22;14521;48.148;-1.656;2022-07-04T01:18:01;22.50;77.40
26964;DHT22;14521;48.148;-1.656;2022-07-04T01:21:23;22.40;77.50
26964;DHT22;14521;48.148;-1.656;2022-07-04T01:24:46;22.50;77.60
26964;DHT22;14521;48.148;-1.656;2022-07-04T01:28:09;22.50;77.90
26964;DHT22;14521;48.148;-1.656;2022-07-04T01:31:31;22.50;77.60
26964;DHT22;14521;48.148;-1.656;2022-07-04T01:34:54;22.50;77.60
26964;DHT22;14521;48.148;-1.656;2022-07-04T01:38:16;22.40;77.50
26964;DHT22;14521;48.148;-1.656;2022-07-04T01:41:39;22.40;77.60
26964;DHT22;14521;48.148;-1.656;2022-07-04T01:45:01;22.40;77.60
26964;DHT22;14521;48.148;-1.656;2022-07-04T01:48:24;22.40;77.60
26964;DHT22;14521;48.148;-1.656;2022-07-04T01:51:48;22.40;77.60
26964;DHT22;14521;48.148;-1.656;2022-07-04T01:55:11;22.40;77.40
26964;DHT22;14521;48.148;-1.656;2022-07-04T01:58:33;22.30;77.40
26964;DHT22;14521;48.148;-1.656;2022-07-04T02:01:56;22.30;77.40
26964;DHT22;14521;48.148;-1.656;2022-07-04T02:05:18;22.30;78.30
26964;DHT22;14521;48.148;-1.656;2022-07-04T02:08:41;22.30;77.40
26964;DHT22;14521;48.148;-1.656;2022-07-04T02:12:22;22.30;77.40
26964;DHT22;14521;48.148;-1.656;2022-07-04T02:16:04;22.30;77.40
26964;DHT22;14521;48.148;-1.656;2022-07-04T02:19:26;22.20;77.40
26964;DHT22;14521;48.148;-1.656;2022-07-04T02:22:49;22.20;77.50
26964;DHT22;14521;48.148;-1.656;2022-07-04T02:26:11;22.10;77.60
26964;DHT22;14521;48.148;-1.656;2022-07-04T02:29:34;22.10;77.80
26964;DHT22;14521;48.148;-1.656;2022-07-04T02:32:56;22.10;77.70
26964;DHT22;14521;48.148;-1.656;2022-07-04T02:36:18;22.20;77.50
26964;DHT22;14521;48.148;-1.656;2022-07-04T02:39:41;22.20;77.50
26964;DHT22;14521;48.148;-1.656;2022-07-04T02:43:03;22.10;77.40
26964;DHT22;14521;48.148;-1.656;2022-07-04T02:46:25;22.20;77.50
26964;DHT22;14521;48.148;-1.656;2022-07-04T02:49:48;22.20;77.50
26964;DHT22;14521;48.148;-1.656;2022-07-04T02:53:10;22.20;77.30
26964;DHT22;14521;48.148;-1.656;2022-07-04T02:56:32;22.20;77.30
26964;DHT22;14521;48.148;-1.656;2022-07-04T02:59:55;22.10;77.40
26964;DHT22;14521;48.148;-1.656;2022-07-04T03:03:17;22.10;77.30
26964;DHT22;14521;48.148;-1.656;2022-07-04T03:06:39;22.00;77.40
26964;DHT22;14521;48.148;-1.656;2022-07-04T03:10:02;22.00;77.50
26964;DHT22;14521;48.148;-1.656;2022-07-04T03:13:25;22.00;77.40
26964;DHT22;14521;48.148;-1.656;2022-07-04T03:16:47;22.00;77.20
26964;DHT22;14521;48.148;-1.656;2022-07-04T03:20:10;22.00;77.20
26964;DHT22;14521;48.148;-1.656;2022-07-04T03:23:33;22.00;77.20
26964;DHT22;14521;48.148;-1.656;2022-07-04T03:26:55;22.00;77.30
26964;DHT22;14521;48.148;-1.656;2022-07-04T03:30:18;22.00;77.30
26964;DHT22;14521;48.148;-1.656;2022-07-04T03:33:40;21.90;77.40
26964;DHT22;14521;48.148;-1.656;2022-07-04T03:37:03;21.90;77.40
26964;DHT22;14521;48.148;-1.656;2022-07-04T03:40:25;21.80;77.30
26964;DHT22;14521;48.148;-1.656;2022-07-04T03:43:51;21.80;77.20
26964;DHT22;14521;48.148;-1.656;2022-07-04T03:47:13;21.80;77.20
26964;DHT22;14521;48.148;-1.656;2022-07-04T03:50:36;21.80;77.10
26964;DHT22;14521;48.148;-1.656;2022-07-04T03:53:58;21.80;76.90
26964;DHT22;14521;48.148;-1.656;2022-07-04T03:57:20;21.80;76.90
26964;DHT22;14521;48.148;-1.656;2022-07-04T04:00:43;21.70;76.70
26964;DHT22;14521;48.148;-1.656;2022-07-04T04:04:05;21.80;76.60
26964;DHT22;14521;48.148;-1.656;2022-07-04T04:07:46;21.80;76.40
26964;DHT22;14521;48.148;-1.656;2022-07-04T04:11:09;21.80;76.40
26964;DHT22;14521;48.148;-1.656;2022-07-04T04:14:31;21.80;76.30
26964;DHT22;14521;48.148;-1.656;2022-07-04T04:17:53;21.80;76.40
26964;DHT22;14521;48.148;-1.656;2022-07-04T04:21:16;21.70;76.30
26964;DHT22;14521;48.148;-1.656;2022-07-04T04:24:39;21.70;76.40
26964;DHT22;14521;48.148;-1.656;2022-07-04T04:28:01;21.70;76.10
26964;DHT22;14521;48.148;-1.656;2022-07-04T04:31:24;21.80;75.80
26964;DHT22;14521;48.148;-1.656;2022-07-04T04:34:47;21.90;75.70
26964;DHT22;14521;48.148;-1.656;2022-07-04T04:38:09;21.90;75.50
26964;DHT22;14521;48.148;-1.656;2022-07-04T04:41:32;22.00;75.60
26964;DHT22;14521;48.148;-1.656;2022-07-04T04:44:54;22.00;75.60
26964;DHT22;14521;48.148;-1.656;2022-07-04T04:48:16;21.90;75.70
26964;DHT22;14521;48.148;-1.656;2022-07-04T04:51:39;21.90;75.70
26964;DHT22;14521;48.148;-1.656;2022-07-04T04:55:02;21.90;75.90
26964;DHT22;14521;48.148;-1.656;2022-07-04T04:58:25;21.80;76.10
26964;DHT22;14521;48.148;-1.656;2022-07-04T05:01:47;21.90;76.20
26964;DHT22;14521;48.148;-1.656;2022-07-04T05:05:10;21.80;77.30
26964;DHT22;14521;48.148;-1.656;2022-07-04T05:08:32;21.60;76.30
26964;DHT22;14521;48.148;-1.656;2022-07-04T05:11:54;21.70;76.50
26964;DHT22;14521;48.148;-1.656;2022-07-04T05:15:17;21.70;76.50
26964;DHT22;14521;48.148;-1.656;2022-07-04T05:18:39;21.70;76.70
26964;DHT22;14521;48.148;-1.656;2022-07-04T05:22:02;21.60;77.10
26964;DHT22;14521;48.148;-1.656;2022-07-04T05:25:25;21.70;77.20
26964;DHT22;14521;48.148;-1.656;2022-07-04T05:28:47;21.70;77.40
26964;DHT22;14521;48.148;-1.656;2022-07-04T05:32:10;21.80;77.20
26964;DHT22;14521;48.148;-1.656;2022-07-04T05:35:32;21.80;77.20
26964;DHT22;14521;48.148;-1.656;2022-07-04T05:38:55;21.90;77.00
26964;DHT22;14521;48.148;-1.656;2022-07-04T05:42:17;21.80;77.30
26964;DHT22;14521;48.148;-1.656;2022-07-04T05:45:40;21.80;77.40
26964;DHT22;14521;48.148;-1.656;2022-07-04T05:49:02;21.70;77.60
26964;DHT22;14521;48.148;-1.656;2022-07-04T05:52:25;21.70;77.70
26964;DHT22;14521;48.148;-1.656;2022-07-04T05:55:48;21.70;77.90
26964;DHT22;14521;48.148;-1.656;2022-07-04T05:59:10;21.70;78.00
26964;DHT22;14521;48.148;-1.656;2022-07-04T06:02:32;21.80;78.20
26964;DHT22;14521;48.148;-1.656;2022-07-04T06:05:55;21.80;78.10
26964;DHT22;14521;48.148;-1.656;2022-07-04T06:09:17;21.90;78.30
26964;DHT22;14521;48.148;-1.656;2022-07-04T06:12:40;21.90;78.90
26964;DHT22;14521;48.148;-1.656;2022-07-04T06:16:03;22.00;78.80
26964;DHT22;14521;48.148;-1.656;2022-07-04T06:19:26;22.10;78.80
26964;DHT22;14521;48.148;-1.656;2022-07-04T06:22:49;22.20;78.50
26964;DHT22;14521;48.148;-1.656;2022-07-04T06:26:12;22.30;78.20
26964;DHT22;14521;48.148;-1.656;2022-07-04T06:29:34;22.50;78.20
26964;DHT22;14521;48.148;-1.656;2022-07-04T06:32:58;22.60;78.70
26964;DHT22;14521;48.148;-1.656;2022-07-04T06:36:21;22.40;78.00
26964;DHT22;14521;48.148;-1.656;2022-07-04T06:39:44;22.30;78.20
26964;DHT22;14521;48.148;-1.656;2022-07-04T06:43:06;22.30;78.40
26964;DHT22;14521;48.148;-1.656;2022-07-04T06:46:30;22.30;78.80
26964;DHT22;14521;48.148;-1.656;2022-07-04T06:49:52;22.20;79.30
26964;DHT22;14521;48.148;-1.656;2022-07-04T06:53:15;22.10;79.30
26964;DHT22;14521;48.148;-1.656;2022-07-04T06:56:41;22.00;80.10
26964;DHT22;14521;48.148;-1.656;2022-07-04T07:00:05;21.80;80.20
26964;DHT22;14521;48.148;-1.656;2022-07-04T07:03:27;21.80;80.40
26964;DHT22;14521;48.148;-1.656;2022-07-04T07:06:51;21.70;81.00
26964;DHT22;14521;48.148;-1.656;2022-07-04T07:10:13;21.80;81.20
26964;DHT22;14521;48.148;-1.656;2022-07-04T07:13:36;21.90;80.80
26964;DHT22;14521;48.148;-1.656;2022-07-04T07:16:58;22.00;80.80
26964;DHT22;14521;48.148;-1.656;2022-07-04T07:20:21;22.10;80.30
26964;DHT22;14521;48.148;-1.656;2022-07-04T07:23:44;22.10;80.10
26964;DHT22;14521;48.148;-1.656;2022-07-04T07:27:07;22.20;80.30
26964;DHT22;14521;48.148;-1.656;2022-07-04T07:30:30;22.30;80.10
26964;DHT22;14521;48.148;-1.656;2022-07-04T07:33:53;22.40;79.60
26964;DHT22;14521;48.148;-1.656;2022-07-04T07:37:16;22.60;79.40
26964;DHT22;14521;48.148;-1.656;2022-07-04T07:40:39;22.70;79.10
26964;DHT22;14521;48.148;-1.656;2022-07-04T07:44:02;22.80;79.10
26964;DHT22;14521;48.148;-1.656;2022-07-04T07:47:25;22.80;79.30
26964;DHT22;14521;48.148;-1.656;2022-07-04T07:50:47;22.90;78.80
26964;DHT22;14521;48.148;-1.656;2022-07-04T07:54:10;22.90;78.80
26964;DHT22;14521;48.148;-1.656;2022-07-04T07:57:53;23.00;78.90
26964;DHT22;14521;48.148;-1.656;2022-07-04T08:01:15;23.10;78.70
26964;DHT22;14521;48.148;-1.656;2022-07-04T08:04:37;23.20;79.70
26964;DHT22;14521;48.148;-1.656;2022-07-04T08:08:01;23.20;79.50
26964;DHT22;14521;48.148;-1.656;2022-07-04T08:11:24;23.20;79.40
26964;DHT22;14521;48.148;-1.656;2022-07-04T08:14:46;23.20;79.10
26964;DHT22;14521;48.148;-1.656;2022-07-04T08:18:09;23.10;78.70
26964;DHT22;14521;48.148;-1.656;2022-07-04T08:21:32;23.20;79.10
26964;DHT22;14521;48.148;-1.656;2022-07-04T08:25:13;23.20;79.40
26964;DHT22;14521;48.148;-1.656;2022-07-04T08:28:39;23.20;79.20
26964;DHT22;14521;48.148;-1.656;2022-07-04T08:32:01;23.20;78.50
26964;DHT22;14521;48.148;-1.656;2022-07-04T08:35:24;23.20;78.40
26964;DHT22;14521;48.148;-1.656;2022-07-04T08:38:47;23.20;78.70
26964;DHT22;14521;48.148;-1.656;2022-07-04T08:42:15;23.20;79.50
26964;DHT22;14521;48.148;-1.656;2022-07-04T08:45:39;23.20;78.70
26964;DHT22;14521;48.148;-1.656;2022-07-04T08:49:26;23.20;78.70
26964;DHT22;14521;48.148;-1.656;2022-07-04T08:56:24;23.20;77.90
26964;DHT22;14521;48.148;-1.656;2022-07-04T09:00:06;23.20;78.30
26964;DHT22;14521;48.148;-1.656;2022-07-04T09:03:30;23.20;77.50
26964;DHT22;14521;48.148;-1.656;2022-07-04T09:06:53;23.20;77.80
26964;DHT22;14521;48.148;-1.656;2022-07-04T09:10:16;23.20;77.60
26964;DHT22;14521;48.148;-1.656;2022-07-04T09:13:39;23.20;77.90
26964;DHT22;14521;48.148;-1.656;2022-07-04T09:17:02;23.20;77.60
26964;DHT22;14521;48.148;-1.656;2022-07-04T09:20:25;23.10;77.60
26964;DHT22;14521;48.148;-1.656;2022-07-04T09:23:47;23.10;77.60
26964;DHT22;14521;48.148;-1.656;2022-07-04T09:27:10;23.10;77.80
26964;DHT22;14521;48.148;-1.656;2022-07-04T09:30:33;23.20;77.90
26964;DHT22;14521;48.148;-1.656;2022-07-04T09:33:57;23.20;77.60
26964;DHT22;14521;48.148;-1.656;2022-07-04T09:37:20;23.20;77.40
26964;DHT22;14521;48.148;-1.656;2022-07-04T09:40:42;23.10;77.70
26964;DHT22;14521;48.148;-1.656;2022-07-04T09:44:25;23.20;77.80
26964;DHT22;14521;48.148;-1.656;2022-07-04T09:47:48;23.20;76.60
26964;DHT22;14521;48.148;-1.656;2022-07-04T09:51:11;23.20;76.30
26964;DHT22;14521;48.148;-1.656;2022-07-04T09:54:33;23.20;76.80
26964;DHT22;14521;48.148;-1.656;2022-07-04T09:58:08;23.20;77.30
26964;DHT22;14521;48.148;-1.656;2022-07-04T10:01:31;23.20;75.60
26964;DHT22;14521;48.148;-1.656;2022-07-04T10:04:53;23.30;76.80
26964;DHT22;14521;48.148;-1.656;2022-07-04T10:08:19;23.30;76.70
26964;DHT22;14521;48.148;-1.656;2022-07-04T10:11:43;23.40;76.50
26964;DHT22;14521;48.148;-1.656;2022-07-04T10:15:06;23.40;77.00
26964;DHT22;14521;48.148;-1.656;2022-07-04T10:18:28;23.40;76.30
26964;DHT22;14521;48.148;-1.656;2022-07-04T10:21:53;23.30;77.50
26964;DHT22;14521;48.148;-1.656;2022-07-04T10:25:16;23.40;76.70
26964;DHT22;14521;48.148;-1.656;2022-07-04T10:28:40;23.30;76.70
26964;DHT22;14521;48.148;-1.656;2022-07-04T10:32:07;23.40;75.50
26964;DHT22;14521;48.148;-1.656;2022-07-04T10:39:24;23.50;78.60
26964;DHT22;14521;48.148;-1.656;2022-07-04T10:42:49;23.60;79.00
26964;DHT22;14521;48.148;-1.656;2022-07-04T10:49:39;23.70;80.10
26964;DHT22;14521;48.148;-1.656;2022-07-04T10:53:10;23.70;80.30
26964;DHT22;14521;48.148;-1.656;2022-07-04T10:56:53;23.80;79.70
26964;DHT22;14521;48.148;-1.656;2022-07-04T11:00:16;23.80;78.20
26964;DHT22;14521;48.148;-1.656;2022-07-04T11:03:52;23.80;78.80
26964;DHT22;14521;48.148;-1.656;2022-07-04T11:07:16;23.90;79.00
26964;DHT22;14521;48.148;-1.656;2022-07-04T11:10:39;23.90;78.90
26964;DHT22;14521;48.148;-1.656;2022-07-04T11:14:41;23.90;78.90
26964;DHT22;14521;48.148;-1.656;2022-07-04T11:18:12;23.90;79.60
26964;DHT22;14521;48.148;-1.656;2022-07-04T11:21:37;23.90;78.90
26964;DHT22;14521;48.148;-1.656;2022-07-04T11:25:00;23.80;77.70
26964;DHT22;14521;48.148;-1.656;2022-07-04T11:28:30;23.90;79.40
26964;DHT22;14521;48.148;-1.656;2022-07-04T11:32:07;23.90;78.10
26964;DHT22;14521;48.148;-1.656;2022-07-04T11:35:30;23.80;77.40
26964;DHT22;14521;48.148;-1.656;2022-07-04T11:39:04;23.70;76.10
26964;DHT22;14521;48.148;-1.656;2022-07-04T11:42:27;23.70;78.50
26964;DHT22;14521;48.148;-1.656;2022-07-04T11:46:12;23.60;76.90
26964;DHT22;14521;48.148;-1.656;2022-07-04T11:49:36;23.60;76.70
26964;DHT22;14521;48.148;-1.656;2022-07-04T11:52:59;23.60;74.20
26964;DHT22;14521;48.148;-1.656;2022-07-04T11:56:41;23.60;74.10
26964;DHT22;14521;48.148;-1.656;2022-07-04T12:00:08;23.70;77.40
26964;DHT22;14521;48.148;-1.656;2022-07-04T12:03:37;23.70;76.90
26964;DHT22;14521;48.148;-1.656;2022-07-04T12:07:11;23.70;75.90
26964;DHT22;14521;48.148;-1.656;2022-07-04T12:10:34;23.60;74.50
26964;DHT22;14521;48.148;-1.656;2022-07-04T12:14:05;23.60;73.20
26964;DHT22;14521;48.148;-1.656;2022-07-04T12:17:36;23.60;73.10
26964;DHT22;14521;48.148;-1.656;2022-07-04T12:21:13;23.60;77.10
26964;DHT22;14521;48.148;-1.656;2022-07-04T12:24:42;23.60;75.90
26964;DHT22;14521;48.148;-1.656;2022-07-04T12:28:06;23.60;75.00
26964;DHT22;14521;48.148;-1.656;2022-07-04T12:31:51;23.60;74.70
26964;DHT22;14521;48.148;-1.656;2022-07-04T12:36:01;23.60;75.20
26964;DHT22;14521;48.148;-1.656;2022-07-04T12:39:31;23.60;73.20
26964;DHT22;14521;48.148;-1.656;2022-07-04T12:42:56;23.60;73.20
26964;DHT22;14521;48.148;-1.656;2022-07-04T12:46:28;23.60;72.60
26964;DHT22;14521;48.148;-1.656;2022-07-04T12:50:04;23.50;73.80
26964;DHT22;14521;48.148;-1.656;2022-07-04T12:53:39;23.60;74.70
26964;DHT22;14521;48.148;-1.656;2022-07-04T12:57:12;23.60;73.20
26964;DHT22;14521;48.148;-1.656;2022-07-04T13:00:35;23.60;74.70
26964;DHT22;14521;48.148;-1.656;2022-07-04T13:03:59;23.60;75.10
26964;DHT22;14521;48.148;-1.656;2022-07-04T13:07:22;23.70;74.20
26964;DHT22;14521;48.148;-1.656;2022-07-04T13:10:45;23.70;75.40
26964;DHT22;14521;48.148;-1.656;2022-07-04T13:14:07;23.60;76.00
26964;DHT22;14521;48.148;-1.656;2022-07-04T13:17:30;23.70;75.00
26964;DHT22;14521;48.148;-1.656;2022-07-04T13:20:53;23.60;76.00
26964;DHT22;14521;48.148;-1.656;2022-07-04T13:24:15;23.60;75.20
26964;DHT22;14521;48.148;-1.656;2022-07-04T13:27:37;23.60;75.70
26964;DHT22;14521;48.148;-1.656;2022-07-04T13:31:00;23.70;75.20
26964;DHT22;14521;48.148;-1.656;2022-07-04T13:34:23;23.70;74.80
26964;DHT22;14521;48.148;-1.656;2022-07-04T13:37:46;23.60;75.90
26964;DHT22;14521;48.148;-1.656;2022-07-04T13:41:08;23.60;75.10
26964;DHT22;14521;48.148;-1.656;2022-07-04T13:44:31;23.60;75.10
26964;DHT22;14521;48.148;-1.656;2022-07-04T13:47:54;23.60;75.30
26964;DHT22;14521;48.148;-1.656;2022-07-04T13:51:17;23.60;75.90
26964;DHT22;14521;48.148;-1.656;2022-07-04T13:54:39;23.60;76.50
26964;DHT22;14521;48.148;-1.656;2022-07-04T13:58:03;23.70;75.10
26964;DHT22;14521;48.148;-1.656;2022-07-04T14:01:26;23.60;75.00
26964;DHT22;14521;48.148;-1.656;2022-07-04T14:04:49;23.70;74.90
26964;DHT22;14521;48.148;-1.656;2022-07-04T14:08:11;23.60;75.10
26964;DHT22;14521;48.148;-1.656;2022-07-04T14:11:34;23.60;74.90
26964;DHT22;14521;48.148;-1.656;2022-07-04T14:14:56;23.60;74.90
26964;DHT22;14521;48.148;-1.656;2022-07-04T14:18:18;23.60;74.90
26964;DHT22;14521;48.148;-1.656;2022-07-04T14:21:41;23.70;74.80
26964;DHT22;14521;48.148;-1.656;2022-07-04T14:25:05;23.70;74.90
26964;DHT22;14521;48.148;-1.656;2022-07-04T14:28:27;23.70;74.90
26964;DHT22;14521;48.148;-1.656;2022-07-04T14:31:50;23.60;75.20
26964;DHT22;14521;48.148;-1.656;2022-07-04T14:35:13;23.70;75.60
26964;DHT22;14521;48.148;-1.656;2022-07-04T14:38:37;23.70;75.00
26964;DHT22;14521;48.148;-1.656;2022-07-04T14:42:00;23.70;75.10
26964;DHT22;14521;48.148;-1.656;2022-07-04T14:45:22;23.70;75.60
26964;DHT22;14521;48.148;-1.656;2022-07-04T14:48:45;23.60;75.30
26964;DHT22;14521;48.148;-1.656;2022-07-04T14:52:07;23.70;75.10
26964;DHT22;14521;48.148;-1.656;2022-07-04T14:55:30;23.70;75.10
26964;DHT22;14521;48.148;-1.656;2022-07-04T14:58:52;23.70;75.30
26964;DHT22;14521;48.148;-1.656;2022-07-04T15:02:14;23.60;75.30
26964;DHT22;14521;48.148;-1.656;2022-07-04T15:05:37;23.70;75.20
26964;DHT22;14521;48.148;-1.656;2022-07-04T15:09:02;23.70;75.20
26964;DHT22;14521;48.148;-1.656;2022-07-04T15:12:25;23.70;75.10
26964;DHT22;14521;48.148;-1.656;2022-07-04T15:15:47;23.70;75.10
26964;DHT22;14521;48.148;-1.656;2022-07-04T15:19:30;23.70;75.10
26964;DHT22;14521;48.148;-1.656;2022-07-04T15:22:52;23.70;75.20
26964;DHT22;14521;48.148;-1.656;2022-07-04T15:26:33;23.70;75.10
26964;DHT22;14521;48.148;-1.656;2022-07-04T15:29:55;23.80;75.00
26964;DHT22;14521;48.148;-1.656;2022-07-04T15:33:18;23.80;74.90
26964;DHT22;14521;48.148;-1.656;2022-07-04T15:36:41;23.80;74.90
26964;DHT22;14521;48.148;-1.656;2022-07-04T15:40:04;23.70;75.10
26964;DHT22;14521;48.148;-1.656;2022-07-04T15:43:28;23.80;75.30
26964;DHT22;14521;48.148;-1.656;2022-07-04T15:46:51;23.70;75.10
26964;DHT22;14521;48.148;-1.656;2022-07-04T15:50:32;23.70;75.60
26964;DHT22;14521;48.148;-1.656;2022-07-04T15:53:54;23.70;75.20
26964;DHT22;14521;48.148;-1.656;2022-07-04T15:57:17;23.80;75.10
26964;DHT22;14521;48.148;-1.656;2022-07-04T16:00:39;23.80;75.70
26964;DHT22;14521;48.148;-1.656;2022-07-04T16:04:02;23.80;74.90
26964;DHT22;14521;48.148;-1.656;2022-07-04T16:07:26;23.80;75.10
26964;DHT22;14521;48.148;-1.656;2022-07-04T16:10:48;23.80;75.40
26964;DHT22;14521;48.148;-1.656;2022-07-04T16:14:11;23.80;75.40
26964;DHT22;14521;48.148;-1.656;2022-07-04T16:17:34;23.80;75.30
26964;DHT22;14521;48.148;-1.656;2022-07-04T16:20:56;23.80;75.20
26964;DHT22;14521;48.148;-1.656;2022-07-04T16:24:19;23.80;75.80
26964;DHT22;14521;48.148;-1.656;2022-07-04T16:27:41;23.80;75.30
26964;DHT22;14521;48.148;-1.656;2022-07-04T16:31:04;23.80;75.40
26964;DHT22;14521;48.148;-1.656;2022-07-04T16:34:34;23.80;75.40
26964;DHT22;14521;48.148;-1.656;2022-07-04T16:37:56;23.80;75.40
26964;DHT22;14521;48.148;-1.656;2022-07-04T16:41:19;23.70;75.30
26964;DHT22;14521;48.148;-1.656;2022-07-04T16:44:41;23.80;75.60
26964;DHT22;14521;48.148;-1.656;2022-07-04T16:48:04;23.80;75.40
26964;DHT22;14521;48.148;-1.656;2022-07-04T16:51:28;23.80;75.90
26964;DHT22;14521;48.148;-1.656;2022-07-04T16:54:51;23.90;76.10
26964;DHT22;14521;48.148;-1.656;2022-07-04T16:58:13;23.80;75.70
26964;DHT22;14521;48.148;-1.656;2022-07-04T17:01:36;23.90;75.90
26964;DHT22;14521;48.148;-1.656;2022-07-04T17:04:59;23.90;77.10
26964;DHT22;14521;48.148;-1.656;2022-07-04T17:08:21;23.90;76.40
26964;DHT22;14521;48.148;-1.656;2022-07-04T17:11:43;23.90;76.60
26964;DHT22;14521;48.148;-1.656;2022-07-04T17:15:06;23.90;76.90
26964;DHT22;14521;48.148;-1.656;2022-07-04T17:18:29;24.00;76.50
26964;DHT22;14521;48.148;-1.656;2022-07-04T17:21:52;24.00;76.80
26964;DHT22;14521;48.148;-1.656;2022-07-04T17:25:14;24.00;76.50
26964;DHT22;14521;48.148;-1.656;2022-07-04T17:28:36;24.00;77.20
26964;DHT22;14521;48.148;-1.656;2022-07-04T17:31:59;24.00;76.70
26964;DHT22;14521;48.148;-1.656;2022-07-04T17:35:21;24.00;77.00
26964;DHT22;14521;48.148;-1.656;2022-07-04T17:38:45;24.00;76.50
26964;DHT22;14521;48.148;-1.656;2022-07-04T17:42:07;24.00;76.20
26964;DHT22;14521;48.148;-1.656;2022-07-04T17:45:30;24.00;76.40
26964;DHT22;14521;48.148;-1.656;2022-07-04T17:48:52;24.00;76.60
26964;DHT22;14521;48.148;-1.656;2022-07-04T17:52:15;24.10;77.00
26964;DHT22;14521;48.148;-1.656;2022-07-04T17:55:38;24.10;76.50
26964;DHT22;14521;48.148;-1.656;2022-07-04T17:59:03;24.10;77.20
26964;DHT22;14521;48.148;-1.656;2022-07-04T18:02:25;24.10;78.30
26964;DHT22;14521;48.148;-1.656;2022-07-04T18:05:48;24.10;77.50
26964;DHT22;14521;48.148;-1.656;2022-07-04T18:09:10;24.10;77.20
26964;DHT22;14521;48.148;-1.656;2022-07-04T18:12:33;24.20;77.00
26964;DHT22;14521;48.148;-1.656;2022-07-04T18:15:55;23.90;72.30
26964;DHT22;14521;48.148;-1.656;2022-07-04T18:19:18;23.80;74.80
26964;DHT22;14521;48.148;-1.656;2022-07-04T18:22:42;23.80;74.80
26964;DHT22;14521;48.148;-1.656;2022-07-04T18:26:06;23.80;73.80
26964;DHT22;14521;48.148;-1.656;2022-07-04T18:29:28;23.80;73.90
26964;DHT22;14521;48.148;-1.656;2022-07-04T18:32:51;23.80;74.30
26964;DHT22;14521;48.148;-1.656;2022-07-04T18:36:13;23.70;73.90
26964;DHT22;14521;48.148;-1.656;2022-07-04T18:39:36;23.70;73.50
26964;DHT22;14521;48.148;-1.656;2022-07-04T18:42:58;23.60;73.40
26964;DHT22;14521;48.148;-1.656;2022-07-04T18:46:40;23.50;73.20
26964;DHT22;14521;48.148;-1.656;2022-07-04T18:50:04;23.50;73.00
26964;DHT22;14521;48.148;-1.656;2022-07-04T18:53:27;23.50;73.20
26964;DHT22;14521;48.148;-1.656;2022-07-04T18:56:49;23.50;72.70
26964;DHT22;14521;48.148;-1.656;2022-07-04T19:00:12;23.50;72.90
26964;DHT22;14521;48.148;-1.656;2022-07-04T19:03:35;23.50;72.40
26964;DHT22;14521;48.148;-1.656;2022-07-04T19:06:57;23.40;72.40
26964;DHT22;14521;48.148;-1.656;2022-07-04T19:10:20;23.30;72.60
26964;DHT22;14521;48.148;-1.656;2022-07-04T19:13:42;23.40;72.90
26964;DHT22;14521;48.148;-1.656;2022-07-04T19:17:05;23.40;74.30
26964;DHT22;14521;48.148;-1.656;2022-07-04T19:20:29;23.50;73.00
26964;DHT22;14521;48.148;-1.656;2022-07-04T19:23:56;23.40;72.60
26964;DHT22;14521;48.148;-1.656;2022-07-04T19:27:19;23.30;73.30
26964;DHT22;14521;48.148;-1.656;2022-07-04T19:30:41;23.20;73.00
26964;DHT22;14521;48.148;-1.656;2022-07-04T19:34:10;23.20;72.70
26964;DHT22;14521;48.148;-1.656;2022-07-04T19:37:33;23.20;73.20
26964;DHT22;14521;48.148;-1.656;2022-07-04T19:40:55;23.20;73.00
26964;DHT22;14521;48.148;-1.656;2022-07-04T19:44:18;23.20;72.90
26964;DHT22;14521;48.148;-1.656;2022-07-04T19:47:44;23.30;73.20
26964;DHT22;14521;48.148;-1.656;2022-07-04T19:51:06;23.20;72.90
26964;DHT22;14521;48.148;-1.656;2022-07-04T19:54:31;23.30;73.20
26964;DHT22;14521;48.148;-1.656;2022-07-04T19:57:53;23.30;72.80
26964;DHT22;14521;48.148;-1.656;2022-07-04T20:01:16;23.20;72.80
26964;DHT22;14521;48.148;-1.656;2022-07-04T20:04:39;23.20;73.30
26964;DHT22;14521;48.148;-1.656;2022-07-04T20:08:02;23.20;73.00
26964;DHT22;14521;48.148;-1.656;2022-07-04T20:11:24;23.10;73.50
26964;DHT22;14521;48.148;-1.656;2022-07-04T20:14:48;23.10;72.80
26964;DHT22;14521;48.148;-1.656;2022-07-04T20:18:10;23.10;72.80
26964;DHT22;14521;48.148;-1.656;2022-07-04T20:21:32;23.20;73.30
26964;DHT22;14521;48.148;-1.656;2022-07-04T20:24:55;23.10;72.30
26964;DHT22;14521;48.148;-1.656;2022-07-04T20:28:18;23.00;72.20
26964;DHT22;14521;48.148;-1.656;2022-07-04T20:31:40;22.90;72.40
26964;DHT22;14521;48.148;-1.656;2022-07-04T20:35:05;22.90;72.40
26964;DHT22;14521;48.148;-1.656;2022-07-04T20:38:28;22.80;72.30
26964;DHT22;14521;48.148;-1.656;2022-07-04T20:41:53;22.80;72.50
26964;DHT22;14521;48.148;-1.656;2022-07-04T20:45:15;22.80;72.50
26964;DHT22;14521;48.148;-1.656;2022-07-04T20:48:38;22.80;72.50
26964;DHT22;14521;48.148;-1.656;2022-07-04T20:52:03;22.70;72.40
26964;DHT22;14521;48.148;-1.656;2022-07-04T20:55:26;22.80;72.60
26964;DHT22;14521;48.148;-1.656;2022-07-04T20:58:48;22.80;73.10
26964;DHT22;14521;48.148;-1.656;2022-07-04T21:02:12;22.80;72.60
26964;DHT22;14521;48.148;-1.656;2022-07-04T21:05:34;22.90;74.50
26964;DHT22;14521;48.148;-1.656;2022-07-04T21:08:57;23.00;72.60
26964;DHT22;14521;48.148;-1.656;2022-07-04T21:12:20;23.00;72.00
26964;DHT22;14521;48.148;-1.656;2022-07-04T21:15:42;23.10;71.80
26964;DHT22;14521;48.148;-1.656;2022-07-04T21:19:05;23.10;71.70
26964;DHT22;14521;48.148;-1.656;2022-07-04T21:22:27;23.10;71.70
26964;DHT22;14521;48.148;-1.656;2022-07-04T21:25:50;23.10;71.60